Time;durP1;ratioP1;P1;durP2;ratioP2;P2;SDS_P1;SDS_P2;PMS_P1;PMS_P2;Temp;Humidity;BMP_temperature;BMP_pressure;BME280_temperature;BME280_humidity;BME280_pressure;Samples;Min_cycle;Max_cycle;Signal;HPM_P1;HPM_P2
2021/09/22 00:01:11;;;;;;;;;14.00;12.00;;;;;;;;6321540;22;8757;-81
2021/09/22 00:03:36;;;;;;;;;14.50;14.50;;;;;;;;6321811;22;8854;-82
2021/09/22 00:06:02;;;;;;;;;19.75;16.75;;;;;;;;6293271;22;8764;-82
2021/09/22 00:08:27;;;;;;;;;15.25;12.75;;;;;;;;6321348;22;8736;-82
2021/09/22 00:10:53;;;;;;;;;14.75;13.00;;;;;;;;6321429;22;8784;-82
2021/09/22 00:13:18;;;;;;;;;19.50;17.75;;;;;;;;6293399;22;8772;-82
2021/09/22 00:15:44;;;;;;;;;14.25;14.00;;;;;;;;6321020;22;8824;-82
2021/09/22 00:18:09;;;;;;;;;20.00;15.00;;;;;;;;6321796;22;8819;-82
2021/09/22 00:20:34;;;;;;;;;23.25;18.75;;;;;;;;6321457;22;8744;-82
2021/09/22 00:23:00;;;;;;;;;21.00;18.00;;;;;;;;6293445;22;8776;-82
2021/09/22 00:25:27;;;;;;;;;13.00;13.00;;;;;;;;6321576;22;8740;-82
2021/09/22 00:27:52;;;;;;;;;22.50;21.00;;;;;;;;6321362;22;8757;-82
2021/09/22 00:30:18;;;;;;;;;20.50;17.00;;;;;;;;6320744;22;8780;-81
2021/09/22 00:32:46;;;;;;;;;21.00;19.00;;;;;;;;6321559;22;8837;-81
2021/09/22 00:35:12;;;;;;;;;13.75;12.50;;;;;;;;6320855;22;8772;-81
2021/09/22 00:37:37;;;;;;;;;19.00;16.75;;;;;;;;6321356;22;9445;-81
2021/09/22 00:40:03;;;;;;;;;17.00;16.25;;;;;;;;6321438;22;8752;-81
2021/09/22 00:42:28;;;;;;;;;20.75;15.50;;;;;;;;6321504;22;8745;-81
2021/09/22 00:44:56;;;;;;;;;19.50;16.00;;;;;;;;6321522;22;8749;-81
2021/09/22 00:47:22;;;;;;;;;17.00;12.00;;;;;;;;6320927;22;8744;-81
2021/09/22 00:49:47;;;;;;;;;18.75;17.75;;;;;;;;6321798;22;8736;-81
2021/09/22 00:52:14;;;;;;;;;16.50;13.75;;;;;;;;6322678;22;8833;-81
2021/09/22 00:54:40;;;;;;;;;19.50;16.25;;;;;;;;6323094;22;8732;-81
2021/09/22 00:57:05;;;;;;;;;16.00;13.75;;;;;;;;6322578;22;8834;-81
2021/09/22 00:59:30;;;;;;;;;14.00;14.00;;;;;;;;6322634;22;8749;-81
2021/09/22 01:01:58;;;;;;;;;20.00;14.50;;;;;;;;6322327;22;8818;-81
2021/09/22 01:04:23;;;;;;;;;22.50;19.00;;;;;;;;6322760;22;8724;-80
2021/09/22 01:06:48;;;;;;;;;18.75;17.25;;;;;;;;6322656;22;8729;-81
2021/09/22 01:09:14;;;;;;;;;20.75;18.00;;;;;;;;6322844;22;8814;-81
2021/09/22 01:11:40;;;;;;;;;8.75;6.50;;;;;;;;6322543;22;8816;-81
2021/09/22 01:14:07;;;;;;;;;24.75;19.75;;;;;;;;6322662;22;8865;-81
2021/09/22 01:16:39;;;;;;;;;16.50;12.75;;;;;;;;6322704;22;8749;-80
2021/09/22 01:19:04;;;;;;;;;17.25;15.75;;;;;;;;6322601;22;8737;-80
2021/09/22 01:21:29;;;;;;;;;17.75;16.25;;;;;;;;6322665;22;8795;-81
2021/09/22 01:23:55;;;;;;;;;27.25;21.75;;;;;;;;6322835;22;8729;-80
2021/09/22 01:26:20;;;;;;;;;20.75;16.00;;;;;;;;6322659;22;9461;-80
2021/09/22 01:28:45;;;;;;;;;13.50;12.50;;;;;;;;6321979;22;8782;-80
2021/09/22 01:31:11;;;;;;;;;24.75;21.00;;;;;;;;6322213;22;8804;-81
2021/09/22 01:33:36;;;;;;;;;26.25;18.25;;;;;;;;6322576;22;8760;-81
2021/09/22 01:36:02;;;;;;;;;15.00;11.00;;;;;;;;6322489;22;8737;-80
2021/09/22 01:38:27;;;;;;;;;20.75;18.50;;;;;;;;6322538;22;8760;-80
2021/09/22 01:40:56;;;;;;;;;19.50;17.75;;;;;;;;6322368;22;8766;-80
2021/09/22 01:43:22;;;;;;;;;21.75;15.75;;;;;;;;6322173;22;8741;-80
2021/09/22 01:45:47;;;;;;;;;23.25;22.00;;;;;;;;6322059;22;8733;-80
2021/09/22 01:48:12;;;;;;;;;17.25;15.00;;;;;;;;6322750;22;8772;-80
2021/09/22 01:50:38;;;;;;;;;21.75;17.75;;;;;;;;6321777;22;8796;-80
2021/09/22 01:53:03;;;;;;;;;18.50;17.00;;;;;;;;6322460;22;8744;-80
2021/09/22 01:55:29;;;;;;;;;21.50;20.00;;;;;;;;6322484;22;8760;-80
2021/09/22 01:57:54;;;;;;;;;18.00;14.25;;;;;;;;6322405;22;8760;-80
2021/09/22 02:00:19;;;;;;;;;16.25;15.00;;;;;;;;6321942;22;8866;-80
2021/09/22 02:02:45;;;;;;;;;16.50;15.25;;;;;;;;6322320;22;8737;-80
2021/09/22 02:05:10;;;;;;;;;21.25;17.75;;;;;;;;6322244;22;8846;-80
2021/09/22 02:07:35;;;;;;;;;19.25;17.00;;;;;;;;6322521;22;8752;-80
2021/09/22 02:10:01;;;;;;;;;19.00;14.75;;;;;;;;6322279;22;8728;-80
2021/09/22 02:12:27;;;;;;;;;22.50;18.50;;;;;;;;6294287;22;8851;-80
2021/09/22 02:14:52;;;;;;;;;23.75;21.50;;;;;;;;6322536;22;8728;-81
2021/09/22 02:17:18;;;;;;;;;20.50;19.00;;;;;;;;6322475;22;8771;-80
2021/09/22 02:19:43;;;;;;;;;24.00;20.00;;;;;;;;6321741;22;8845;-81
2021/09/22 02:22:08;;;;;;;;;1609.75;1609.75;;;;;;;;6321933;22;8760;-80
2021/09/22 02:24:34;;;;;;;;;31.00;28.50;;;;;;;;6321614;22;8741;-81
2021/09/22 02:26:59;;;;;;;;;23.00;19.75;;;;;;;;6321791;22;8772;-81
2021/09/22 02:29:25;;;;;;;;;26.50;22.00;;;;;;;;6321282;22;8769;-80
2021/09/22 02:31:50;;;;;;;;;17.50;11.25;;;;;;;;6321716;22;8760;-80
2021/09/22 02:34:15;;;;;;;;;21.25;18.25;;;;;;;;6321765;22;8732;-80
2021/09/22 02:36:41;;;;;;;;;21.50;20.00;;;;;;;;6321746;22;8786;-80
2021/09/22 02:39:07;;;;;;;;;30.00;22.25;;;;;;;;6293644;22;8894;-80
2021/09/22 02:41:32;;;;;;;;;23.50;18.75;;;;;;;;6322059;22;9453;-80
2021/09/22 02:43:59;;;;;;;;;25.75;21.50;;;;;;;;6321870;22;8757;-80
2021/09/22 02:46:24;;;;;;;;;19.00;16.75;;;;;;;;6322236;22;8880;-80
2021/09/22 02:48:49;;;;;;;;;16.25;14.50;;;;;;;;6294127;22;8922;-80
2021/09/22 02:51:15;;;;;;;;;13.75;12.50;;;;;;;;6321366;22;8795;-80
2021/09/22 02:53:40;;;;;;;;;26.50;21.75;;;;;;;;6322033;22;8760;-79
2021/09/22 02:56:05;;;;;;;;;18.25;16.00;;;;;;;;6322184;22;8760;-79
2021/09/22 02:58:31;;;;;;;;;24.75;20.75;;;;;;;;6321911;22;8744;-79
2021/09/22 03:00:57;;;;;;;;;0.00;0.00;;;;;;;;6322267;22;8761;-80
2021/09/22 03:03:22;;;;;;;;;21.25;21.25;;;;;;;;6322253;22;8701;-79
2021/09/22 03:05:48;;;;;;;;;22.25;21.50;;;;;;;;6322338;22;8732;-80
2021/09/22 03:08:13;;;;;;;;;34.00;30.25;;;;;;;;6322222;22;8826;-80
2021/09/22 03:10:38;;;;;;;;;40.50;34.25;;;;;;;;6293824;22;8780;-80
2021/09/22 03:13:04;;;;;;;;;26.50;21.00;;;;;;;;6320950;22;8792;-80
2021/09/22 03:15:29;;;;;;;;;24.00;21.00;;;;;;;;6321803;22;8745;-80
2021/09/22 03:17:55;;;;;;;;;36.50;30.50;;;;;;;;6322183;22;8757;-80
2021/09/22 03:20:21;;;;;;;;;30.00;25.00;;;;;;;;6322138;22;8748;-80
2021/09/22 03:22:46;;;;;;;;;32.25;26.25;;;;;;;;6293373;22;8760;-80
2021/09/22 03:25:12;;;;;;;;;22.50;21.25;;;;;;;;6322159;22;8737;-80
2021/09/22 03:27:37;;;;;;;;;28.75;21.00;;;;;;;;6321791;22;8891;-80
2021/09/22 03:30:04;;;;;;;;;20.00;18.25;;;;;;;;6293661;22;8748;-80
2021/09/22 03:32:29;;;;;;;;;23.25;20.75;;;;;;;;6322015;22;8708;-80
2021/09/22 03:34:55;;;;;;;;;15.25;14.00;;;;;;;;6321994;22;8756;-80
2021/09/22 03:37:20;;;;;;;;;40.50;34.00;;;;;;;;6321762;22;8756;-80
2021/09/22 03:39:46;;;;;;;;;28.00;20.50;;;;;;;;6321845;22;8783;-80
2021/09/22 03:42:11;;;;;;;;;23.50;19.75;;;;;;;;6321768;22;8843;-80
2021/09/22 03:44:36;;;;;;;;;28.75;26.75;;;;;;;;6293640;22;9039;-80
2021/09/22 03:47:02;;;;;;;;;28.75;24.50;;;;;;;;6321561;22;8855;-80
2021/09/22 03:49:28;;;;;;;;;24.75;23.75;;;;;;;;6321352;22;8776;-80
2021/09/22 03:51:54;;;;;;;;;21.25;19.00;;;;;;;;6321688;22;8748;-80
2021/09/22 03:54:19;;;;;;;;;28.00;24.00;;;;;;;;6321380;22;8806;-80
2021/09/22 03:56:45;;;;;;;;;29.00;24.50;;;;;;;;6321410;22;9468;-80
2021/09/22 03:59:10;;;;;;;;;30.00;27.75;;;;;;;;6321000;22;8764;-80
2021/09/22 04:01:35;;;;;;;;;377.00;376.00;;;;;;;;6321081;22;8728;-80
2021/09/22 04:04:01;;;;;;;;;20.25;18.50;;;;;;;;6321771;22;8826;-80
2021/09/22 04:06:26;;;;;;;;;24.50;24.00;;;;;;;;6293435;22;8771;-80
2021/09/22 04:08:51;;;;;;;;;26.00;25.00;;;;;;;;6321734;22;8741;-80
2021/09/22 04:11:17;;;;;;;;;13.00;13.00;;;;;;;;6321662;22;8788;-80
2021/09/22 04:13:42;;;;;;;;;24.25;22.50;;;;;;;;6321629;22;8737;-80
2021/09/22 04:16:09;;;;;;;;;15.25;14.50;;;;;;;;6293618;22;8854;-80
2021/09/22 04:18:34;;;;;;;;;19.75;19.00;;;;;;;;6321889;22;8733;-80
2021/09/22 04:20:59;;;;;;;;;18.25;18.25;;;;;;;;6321273;22;8725;-80
2021/09/22 04:23:25;;;;;;;;;16.00;16.00;;;;;;;;6321557;22;8766;-80
2021/09/22 04:25:50;;;;;;;;;12.25;12.25;;;;;;;;6323150;22;8784;-80
2021/09/22 04:28:15;;;;;;;;;21.25;21.00;;;;;;;;6322135;22;8790;-80
2021/09/22 04:30:41;;;;;;;;;15.00;15.00;;;;;;;;6322552;22;8875;-80
2021/09/22 04:33:06;;;;;;;;;14.25;14.25;;;;;;;;6322724;22;8740;-80
2021/09/22 04:35:34;;;;;;;;;19.50;19.50;;;;;;;;6322890;22;8732;-80
2021/09/22 04:37:59;;;;;;;;;335.20;333.20;;;;;;;;6321911;22;8774;-80
2021/09/22 04:40:28;;;;;;;;;12.25;12.25;;;;;;;;6322789;22;8901;-80
2021/09/22 04:42:54;;;;;;;;;12.00;12.00;;;;;;;;6322196;22;8759;-81
2021/09/22 04:45:20;;;;;;;;;10.75;10.50;;;;;;;;6322545;22;9507;-81
2021/09/22 04:47:45;;;;;;;;;22.00;21.00;;;;;;;;6322791;22;8851;-80
2021/09/22 04:50:11;;;;;;;;;9.00;8.50;;;;;;;;6322218;22;8729;-80
2021/09/22 04:52:36;;;;;;;;;15.75;15.75;;;;;;;;6322572;22;8721;-80
2021/09/22 04:55:02;;;;;;;;;9.50;9.50;;;;;;;;6322651;22;9891;-80
2021/09/22 04:57:28;;;;;;;;;11.75;9.50;;;;;;;;6322344;22;8838;-80
2021/09/22 04:59:53;;;;;;;;;14.25;13.75;;;;;;;;6322127;22;8752;-80
2021/09/22 05:02:18;;;;;;;;;18.25;18.25;;;;;;;;6322544;22;8761;-81
2021/09/22 05:04:44;;;;;;;;;11.75;11.75;;;;;;;;6322619;22;8775;-81
2021/09/22 05:07:09;;;;;;;;;17.75;15.50;;;;;;;;6322830;22;9496;-80
2021/09/22 05:09:34;;;;;;;;;10.00;9.50;;;;;;;;6322829;22;8826;-82
2021/09/22 05:12:01;;;;;;;;;17.00;15.75;;;;;;;;6322429;22;8760;-84
2021/09/22 05:14:26;;;;;;;;;17.50;16.75;;;;;;;;6293949;22;9413;-82
2021/09/22 05:16:52;;;;;;;;;17.50;13.75;;;;;;;;6321854;22;8760;-82
2021/09/22 05:19:19;;;;;;;;;13.25;12.25;;;;;;;;6322580;22;8843;-81
2021/09/22 05:21:44;;;;;;;;;12.75;12.75;;;;;;;;6322133;22;9717;-81
2021/09/22 05:24:10;;;;;;;;;15.00;13.50;;;;;;;;6294196;22;8772;-82
2021/09/22 05:26:35;;;;;;;;;6.50;6.50;;;;;;;;6322142;22;8732;-81
2021/09/22 05:29:00;;;;;;;;;7.50;7.50;;;;;;;;6321807;22;8753;-81
2021/09/22 05:31:26;;;;;;;;;6.25;6.25;;;;;;;;6322051;22;8752;-81
2021/09/22 05:33:51;;;;;;;;;6.25;6.25;;;;;;;;6322305;22;8732;-83
2021/09/22 05:36:17;;;;;;;;;16.00;13.00;;;;;;;;6293897;22;8838;-82
2021/09/22 05:38:42;;;;;;;;;9.00;7.25;;;;;;;;6322414;22;8749;-81
2021/09/22 05:41:07;;;;;;;;;68.50;54.25;;;;;;;;6322074;22;8855;-81
2021/09/22 05:43:33;;;;;;;;;64.75;52.50;;;;;;;;6321791;22;8771;-81
2021/09/22 05:45:58;;;;;;;;;9.00;9.00;;;;;;;;6321973;22;8748;-82
2021/09/22 05:48:24;;;;;;;;;87.25;86.75;;;;;;;;6322433;22;8736;-81
2021/09/22 05:50:49;;;;;;;;;3552.00;3552.00;;;;;;;;6322335;22;8763;-82
2021/09/22 05:53:14;;;;;;;;;3552.00;3552.00;;;;;;;;6322058;22;8740;-81
2021/09/22 05:55:40;;;;;;;;;3550.75;3550.75;;;;;;;;6294012;22;8852;-81
2021/09/22 05:58:08;;;;;;;;;3552.00;3552.00;;;;;;;;6294040;22;8780;-81
2021/09/22 06:00:33;;;;;;;;;3597.80;3597.80;;;;;;;;6321572;22;9623;-81
2021/09/22 06:03:04;;;;;;;;;3552.00;3552.00;;;;;;;;6321616;22;8772;-82
2021/09/22 06:05:30;;;;;;;;;87.60;86.20;;;;;;;;6293597;22;8748;-82
2021/09/22 06:07:55;;;;;;;;;89.50;86.00;;;;;;;;6293369;22;8764;-82
2021/09/22 06:10:20;;;;;;;;;90.50;88.25;;;;;;;;6321914;22;8760;-81
2021/09/22 06:12:46;;;;;;;;;90.75;86.00;;;;;;;;6321834;22;8780;-80
2021/09/22 06:15:11;;;;;;;;;90.75;87.00;;;;;;;;6321578;22;8744;-81
2021/09/22 06:17:36;;;;;;;;;1654.75;1653.50;;;;;;;;6321923;22;8779;-81
2021/09/22 06:20:02;;;;;;;;;1304.25;1302.00;;;;;;;;6321617;22;8749;-81
2021/09/22 06:22:28;;;;;;;;;1736.25;1735.00;;;;;;;;6321974;22;8952;-81
2021/09/22 06:24:53;;;;;;;;;2002.00;2002.00;;;;;;;;6321537;22;8764;-81
2021/09/22 06:27:19;;;;;;;;;3300.25;3300.25;;;;;;;;6321586;22;8827;-81
2021/09/22 06:29:45;;;;;;;;;3568.80;3568.80;;;;;;;;6293533;22;8752;-81
2021/09/22 06:32:10;;;;;;;;;3469.50;3469.50;;;;;;;;6321868;22;8802;-81
2021/09/22 06:34:35;;;;;;;;;3552.00;3552.00;;;;;;;;6321746;22;8768;-81
2021/09/22 06:37:01;;;;;;;;;3544.00;3544.00;;;;;;;;6321654;22;8766;-81
2021/09/22 06:39:26;;;;;;;;;3463.50;3463.50;;;;;;;;6321685;22;8792;-83
2021/09/22 06:42:18;;;;;;;;;3533.50;3533.50;;;;;;;;6321406;22;8806;-83
2021/09/22 06:44:43;;;;;;;;;3564.80;3564.80;;;;;;;;6320605;22;8741;-81
2021/09/22 06:47:08;;;;;;;;;3541.50;3541.50;;;;;;;;6322131;22;8752;-81
2021/09/22 06:49:34;;;;;;;;;3541.50;3541.50;;;;;;;;6321883;22;8744;-83
2021/09/22 06:51:59;;;;;;;;;3550.00;3550.00;;;;;;;;6321703;22;8776;-83
2021/09/22 06:54:25;;;;;;;;;3539.50;3539.50;;;;;;;;6321742;22;8791;-83
2021/09/22 06:56:50;;;;;;;;;3535.50;3535.50;;;;;;;;6293405;22;8776;-82
2021/09/22 06:59:17;;;;;;;;;3537.50;3537.50;;;;;;;;6321671;22;8877;-83
2021/09/22 07:01:42;;;;;;;;;3551.00;3551.00;;;;;;;;6321420;22;8759;-83
2021/09/22 07:04:07;;;;;;;;;3539.50;3539.50;;;;;;;;6321708;22;8740;-83
2021/09/22 07:06:33;;;;;;;;;3539.50;3539.50;;;;;;;;6293326;22;8865;-83
2021/09/22 07:08:58;;;;;;;;;3544.75;3544.75;;;;;;;;6321591;22;8802;-83
2021/09/22 07:11:24;;;;;;;;;3533.50;3533.50;;;;;;;;6293185;22;8775;-84
2021/09/22 07:13:50;;;;;;;;;3531.50;3531.50;;;;;;;;6321641;22;8756;-83
2021/09/22 07:16:16;;;;;;;;;3576.50;3576.50;;;;;;;;6321376;22;8843;-83
2021/09/22 07:18:42;;;;;;;;;3545.20;3545.20;;;;;;;;6321753;22;8816;-83
2021/09/22 07:21:08;;;;;;;;;3537.50;3537.50;;;;;;;;6321740;22;8736;-83
2021/09/22 07:23:33;;;;;;;;;3531.50;3531.50;;;;;;;;6321622;22;11589;-83
2021/09/22 07:25:58;;;;;;;;;3531.50;3531.50;;;;;;;;6321728;22;8779;-83
2021/09/22 07:28:24;;;;;;;;;3529.75;3529.75;;;;;;;;6321105;22;8804;-83
2021/09/22 07:30:49;;;;;;;;;3526.25;3526.25;;;;;;;;6320949;22;8906;-83
2021/09/22 07:33:15;;;;;;;;;3526.25;3526.25;;;;;;;;6320810;22;8837;-84
2021/09/22 07:35:40;;;;;;;;;3529.75;3529.75;;;;;;;;6292173;22;8791;-82
2021/09/22 07:38:06;;;;;;;;;3526.25;3526.25;;;;;;;;6320417;22;8752;-82
2021/09/22 07:40:31;;;;;;;;;3519.25;3519.25;;;;;;;;6321460;22;8876;-82
2021/09/22 07:42:58;;;;;;;;;3531.50;3531.50;;;;;;;;6292949;22;8763;-82
2021/09/22 07:45:23;;;;;;;;;3534.60;3534.60;;;;;;;;6321161;22;8756;-82
2021/09/22 07:47:49;;;;;;;;;3519.25;3519.25;;;;;;;;6293547;22;8843;-83
2021/09/22 07:50:14;;;;;;;;;3574.33;3574.33;;;;;;;;6320872;22;8810;-82
2021/09/22 07:52:40;;;;;;;;;3517.25;3517.25;;;;;;;;6321237;22;8930;-82
2021/09/22 07:55:07;;;;;;;;;3511.25;3511.25;;;;;;;;6320979;22;8795;-82
2021/09/22 07:57:32;;;;;;;;;3566.75;3566.75;;;;;;;;6321267;22;9718;-83
2021/09/22 07:59:57;;;;;;;;;3506.00;3506.00;;;;;;;;6320874;22;8794;-82
2021/09/22 08:02:23;;;;;;;;;3506.00;3506.00;;;;;;;;6321223;22;8748;-83
2021/09/22 08:04:48;;;;;;;;;3511.25;3511.25;;;;;;;;6321616;22;8849;-82
2021/09/22 08:07:15;;;;;;;;;3500.00;3500.00;;;;;;;;6321335;22;8792;-82
2021/09/22 08:09:40;;;;;;;;;3532.60;3532.60;;;;;;;;6321263;22;9579;-80
2021/09/22 08:12:06;;;;;;;;;3527.75;3527.75;;;;;;;;6321037;22;8787;-80
2021/09/22 08:14:32;;;;;;;;;3525.75;3525.75;;;;;;;;6321361;22;11596;-80
2021/09/22 08:16:58;;;;;;;;;3527.75;3527.75;;;;;;;;6321252;22;8767;-81
2021/09/22 08:19:24;;;;;;;;;3531.40;3531.40;;;;;;;;6321380;22;8780;-80
2021/09/22 08:21:49;;;;;;;;;3546.67;3546.67;;;;;;;;6321500;22;8736;-80
2021/09/22 08:24:15;;;;;;;;;3493.50;3493.50;;;;;;;;6321288;22;11543;-81
2021/09/22 08:26:40;;;;;;;;;3551.75;3551.75;;;;;;;;6320754;22;8744;-82
2021/09/22 08:29:05;;;;;;;;;3559.33;3559.33;;;;;;;;6319543;22;8784;-80
2021/09/22 08:31:31;;;;;;;;;3498.75;3498.75;;;;;;;;6320728;22;8784;-81
2021/09/22 08:33:56;;;;;;;;;3552.00;3552.00;;;;;;;;6320476;22;8931;-81
2021/09/22 08:36:22;;;;;;;;;3548.25;3548.25;;;;;;;;6320904;22;8752;-81
2021/09/22 08:38:47;;;;;;;;;3500.75;3500.75;;;;;;;;6320990;22;8890;-80
2021/09/22 08:41:12;;;;;;;;;3491.75;3491.75;;;;;;;;6320920;22;8770;-80
2021/09/22 08:43:38;;;;;;;;;3498.75;3498.75;;;;;;;;6321034;22;8775;-80
2021/09/22 08:46:03;;;;;;;;;3498.75;3498.75;;;;;;;;6320947;22;8744;-80
2021/09/22 08:48:29;;;;;;;;;3498.75;3498.75;;;;;;;;6320949;22;8780;-80
2021/09/22 08:50:55;;;;;;;;;3504.00;3504.00;;;;;;;;6320477;22;8768;-80
2021/09/22 08:53:21;;;;;;;;;3510.60;3510.60;;;;;;;;6320838;22;8740;-80
2021/09/22 08:55:47;;;;;;;;;3543.00;3543.00;;;;;;;;6320818;22;8757;-80
2021/09/22 08:58:12;;;;;;;;;3497.00;3497.00;;;;;;;;6320692;22;8794;-80
2021/09/22 09:00:38;;;;;;;;;3487.75;3487.75;;;;;;;;6320750;22;9548;-81
2021/09/22 09:03:04;;;;;;;;;3540.50;3540.50;;;;;;;;6320509;22;8810;-81
2021/09/22 09:05:29;;;;;;;;;2979.50;2979.25;;;;;;;;6320716;22;11731;-80
2021/09/22 09:07:59;;;;;;;;;3422.50;3422.50;;;;;;;;6320352;22;8745;-80
2021/09/22 09:10:26;;;;;;;;;3512.00;3512.00;;;;;;;;6320794;22;8732;-81
2021/09/22 09:12:58;;;;;;;;;3517.60;3517.60;;;;;;;;6321330;22;8756;-80
2021/09/22 09:15:28;;;;;;;;;3503.20;3503.20;;;;;;;;6321810;22;8720;-80
2021/09/22 09:17:58;;;;;;;;;3490.00;3490.00;;;;;;;;6322363;22;8733;-79
2021/09/22 09:20:25;;;;;;;;;3502.20;3502.20;;;;;;;;6322026;22;8783;-80
2021/09/22 09:22:54;;;;;;;;;3529.40;3529.40;;;;;;;;6321248;22;8846;-79
2021/09/22 09:25:23;;;;;;;;;3504.40;3504.40;;;;;;;;6320919;22;8713;-79
2021/09/22 09:27:49;;;;;;;;;3495.80;3495.80;;;;;;;;6297326;22;8774;-79
2021/09/22 09:30:16;;;;;;;;;3476.50;3476.50;;;;;;;;6293648;22;8901;-80
2021/09/22 09:32:41;;;;;;;;;3500.20;3500.20;;;;;;;;6321757;22;8745;-81
2021/09/22 09:35:06;;;;;;;;;3486.00;3486.00;;;;;;;;6319836;22;8772;-80
2021/09/22 09:37:39;;;;;;;;;3491.25;3491.25;;;;;;;;6321681;22;8764;-80
2021/09/22 09:40:15;;;;;;;;;3485.40;3485.40;;;;;;;;6321892;22;9508;-80
2021/09/22 09:42:41;;;;;;;;;3482.40;3482.40;;;;;;;;6319437;22;8763;-80
2021/09/22 09:45:07;;;;;;;;;3487.50;3487.50;;;;;;;;6321147;22;8748;-80
2021/09/22 09:47:32;;;;;;;;;3474.25;3474.25;;;;;;;;6321564;22;8811;-81
2021/09/22 09:50:14;;;;;;;;;3487.50;3487.50;;;;;;;;6322175;22;8760;-80
2021/09/22 09:52:50;;;;;;;;;3485.40;3485.40;;;;;;;;6322008;22;8744;-80
2021/09/22 09:55:16;;;;;;;;;3478.40;3478.40;;;;;;;;6319283;22;8732;-80
2021/09/22 09:57:48;;;;;;;;;3476.40;3476.40;;;;;;;;6319624;22;8728;-80
2021/09/22 10:00:14;;;;;;;;;3474.00;3474.00;;;;;;;;6321209;22;8724;-80
2021/09/22 10:02:39;;;;;;;;;3474.00;3474.00;;;;;;;;6319929;22;8741;-80
2021/09/22 10:05:05;;;;;;;;;3462.00;3462.00;;;;;;;;6321970;22;8782;-80
2021/09/22 10:07:34;;;;;;;;;2625.25;2625.25;;;;;;;;6322039;22;8791;-80
2021/09/22 10:10:00;;;;;;;;;3459.75;3459.75;;;;;;;;6321919;22;8748;-82
2021/09/22 10:12:26;;;;;;;;;3493.00;3493.00;;;;;;;;6321343;22;8791;-80
2021/09/22 10:14:52;;;;;;;;;3481.20;3481.20;;;;;;;;6321116;22;9621;-79
2021/09/22 10:17:19;;;;;;;;;3492.80;3492.80;;;;;;;;6321863;22;8786;-80
2021/09/22 10:19:44;;;;;;;;;3495.60;3495.60;;;;;;;;6321618;22;11554;-80
2021/09/22 10:22:10;;;;;;;;;3497.00;3497.00;;;;;;;;6321426;22;8732;-79
2021/09/22 10:24:35;;;;;;;;;3488.60;3488.60;;;;;;;;6321425;22;8854;-79
2021/09/22 10:27:01;;;;;;;;;3485.40;3485.40;;;;;;;;6321580;22;8736;-79
2021/09/22 10:29:28;;;;;;;;;3475.67;3475.67;;;;;;;;6321046;22;8772;-79
2021/09/22 10:31:56;;;;;;;;;3482.60;3482.60;;;;;;;;6321857;22;9056;-79
2021/09/22 10:34:27;;;;;;;;;3474.75;3474.75;;;;;;;;6321954;22;8824;-79
2021/09/22 10:36:52;;;;;;;;;3460.80;3460.80;;;;;;;;6293571;22;8982;-79
2021/09/22 10:39:44;;;;;;;;;3425.00;3425.00;;;;;;;;6322144;22;8752;-79
2021/09/22 10:42:38;;;;;;;;;3445.60;3445.60;;;;;;;;6285477;22;8728;-79
2021/09/22 10:45:20;;;;;;;;;3454.20;3454.20;;;;;;;;6288114;22;8741;-79
2021/09/22 10:47:46;;;;;;;;;3453.50;3453.50;;;;;;;;6321930;22;8720;-79
2021/09/22 10:50:13;;;;;;;;;3444.00;3444.00;;;;;;;;6321350;22;8694;-79
2021/09/22 10:52:40;;;;;;;;;3440.00;3440.00;;;;;;;;6321536;22;8717;-79
2021/09/22 10:55:10;;;;;;;;;3434.40;3434.40;;;;;;;;6320796;22;8813;-80
2021/09/22 10:57:36;;;;;;;;;3444.20;3444.20;;;;;;;;6321340;22;8787;-80
2021/09/22 11:00:15;;;;;;;;;3456.80;3456.80;;;;;;;;6321257;22;8756;-80
2021/09/22 11:02:54;;;;;;;;;3464.80;3464.80;;;;;;;;6321529;22;8757;-80
2021/09/22 11:05:28;;;;;;;;;3430.00;3430.00;;;;;;;;6321853;22;8744;-80
2021/09/22 11:07:58;;;;;;;;;3425.80;3425.80;;;;;;;;6321598;22;8810;-80
2021/09/22 11:10:34;;;;;;;;;3433.80;3433.80;;;;;;;;6321695;22;8895;-80
2021/09/22 11:13:22;;;;;;;;;3430.75;3430.75;;;;;;;;6293422;22;8748;-80
2021/09/22 11:15:50;;;;;;;;;3437.00;3437.00;;;;;;;;6296358;22;8724;-79
2021/09/22 11:18:17;;;;;;;;;3434.20;3434.20;;;;;;;;6321760;22;8767;-80
2021/09/22 11:20:51;;;;;;;;;3417.80;3417.80;;;;;;;;6321645;22;8745;-80
2021/09/22 11:23:17;;;;;;;;;3427.20;3427.20;;;;;;;;6321701;22;8686;-80
2021/09/22 11:25:42;;;;;;;;;3418.00;3418.00;;;;;;;;6321176;22;9535;-80
2021/09/22 11:28:08;;;;;;;;;3407.25;3407.25;;;;;;;;6320653;22;8849;-80
2021/09/22 11:30:34;;;;;;;;;3410.75;3410.75;;;;;;;;6321336;22;8898;-80
2021/09/22 11:32:59;;;;;;;;;3412.20;3412.20;;;;;;;;6321055;22;8713;-80
2021/09/22 11:35:28;;;;;;;;;3402.75;3402.75;;;;;;;;6321538;22;8759;-80
2021/09/22 11:37:56;;;;;;;;;3416.40;3416.40;;;;;;;;6321133;22;8752;-80
2021/09/22 11:40:24;;;;;;;;;3421.40;3421.40;;;;;;;;6321593;22;8732;-80
2021/09/22 11:42:54;;;;;;;;;3409.20;3409.20;;;;;;;;6321452;22;8714;-80
2021/09/22 11:45:24;;;;;;;;;3417.80;3417.80;;;;;;;;6320064;22;8700;-81
2021/09/22 11:47:50;;;;;;;;;3405.00;3405.00;;;;;;;;6321345;22;8729;-81
2021/09/22 11:50:26;;;;;;;;;3390.50;3390.50;;;;;;;;6292984;22;8909;-80
2021/09/22 11:52:51;;;;;;;;;3439.20;3439.20;;;;;;;;6292488;22;8733;-81
2021/09/22 11:55:18;;;;;;;;;3403.50;3403.50;;;;;;;;6321735;22;8798;-81
2021/09/22 11:57:43;;;;;;;;;3415.60;3415.60;;;;;;;;6293083;22;8845;-81
2021/09/22 12:00:16;;;;;;;;;3401.00;3401.00;;;;;;;;6293175;22;8784;-80
2021/09/22 12:02:41;;;;;;;;;3418.40;3418.40;;;;;;;;6320813;22;8733;-79
2021/09/22 12:05:08;;;;;;;;;3412.50;3412.50;;;;;;;;6293075;22;8849;-79
2021/09/22 12:07:34;;;;;;;;;3404.80;3404.80;;;;;;;;6321335;22;8767;-80
2021/09/22 12:10:01;;;;;;;;;3411.40;3411.40;;;;;;;;6321402;22;8748;-79
2021/09/22 12:12:27;;;;;;;;;3402.00;3402.00;;;;;;;;6321258;22;8763;-80
2021/09/22 12:14:54;;;;;;;;;3397.25;3397.25;;;;;;;;6320873;22;8736;-80
2021/09/22 12:17:21;;;;;;;;;3402.00;3402.00;;;;;;;;6321244;22;8751;-79
2021/09/22 12:19:48;;;;;;;;;3397.80;3397.80;;;;;;;;6321265;22;8756;-80
2021/09/22 12:22:14;;;;;;;;;3395.00;3395.00;;;;;;;;6321242;22;8743;-80
2021/09/22 12:24:42;;;;;;;;;3395.00;3395.00;;;;;;;;6321111;22;8741;-80
2021/09/22 12:27:21;;;;;;;;;3395.00;3395.00;;;;;;;;6321031;22;9622;-80
2021/09/22 12:29:50;;;;;;;;;3407.00;3407.00;;;;;;;;6321131;22;8782;-80
2021/09/22 12:32:16;;;;;;;;;3399.20;3399.20;;;;;;;;6320947;22;8744;-79
2021/09/22 12:34:43;;;;;;;;;3383.25;3383.25;;;;;;;;6321171;22;8783;-79
2021/09/22 12:37:19;;;;;;;;;3390.80;3390.80;;;;;;;;6320778;22;9561;-79
2021/09/22 12:39:57;;;;;;;;;3393.60;3393.60;;;;;;;;6321241;22;8732;-79
2021/09/22 12:42:27;;;;;;;;;3395.00;3395.00;;;;;;;;6320530;22;9596;-80
2021/09/22 12:44:53;;;;;;;;;87.00;86.60;;;;;;;;6320633;22;8724;-79
2021/09/22 12:47:19;;;;;;;;;808.60;808.00;;;;;;;;6322330;22;8728;-79
2021/09/22 12:50:02;;;;;;;;;2895.25;2895.25;;;;;;;;6322675;22;8748;-79
2021/09/22 12:52:28;;;;;;;;;3399.20;3399.20;;;;;;;;6293476;22;8798;-79
2021/09/22 12:54:53;;;;;;;;;3378.00;3378.00;;;;;;;;6322462;22;8776;-80
2021/09/22 12:57:18;;;;;;;;;3375.25;3375.25;;;;;;;;6322231;22;8736;-79
2021/09/22 12:59:44;;;;;;;;;3376.25;3376.25;;;;;;;;6322232;22;8792;-82
2021/09/22 13:02:23;;;;;;;;;3376.25;3376.25;;;;;;;;6322471;22;8741;-81
2021/09/22 13:04:51;;;;;;;;;3380.20;3380.20;;;;;;;;6322356;22;8733;-80
2021/09/22 13:07:23;;;;;;;;;3376.00;3376.00;;;;;;;;6322177;22;8728;-81
2021/09/22 13:09:58;;;;;;;;;3377.40;3377.40;;;;;;;;6322110;22;9623;-81
2021/09/22 13:12:31;;;;;;;;;3380.20;3380.20;;;;;;;;6321943;22;8778;-80
2021/09/22 13:14:56;;;;;;;;;3381.60;3381.60;;;;;;;;6321655;22;8731;-81
2021/09/22 13:17:21;;;;;;;;;3368.25;3368.25;;;;;;;;6322339;22;8737;-81
2021/09/22 13:19:47;;;;;;;;;3370.00;3370.00;;;;;;;;6322002;22;8794;-81
2021/09/22 13:22:12;;;;;;;;;3378.00;3378.00;;;;;;;;6322033;22;8875;-80
2021/09/22 13:24:38;;;;;;;;;3378.00;3378.00;;;;;;;;6293870;22;8782;-81
2021/09/22 13:27:04;;;;;;;;;3358.50;3358.50;;;;;;;;6321678;22;8744;-80
2021/09/22 13:29:30;;;;;;;;;3380.50;3380.50;;;;;;;;6321712;22;8794;-80
2021/09/22 13:31:56;;;;;;;;;3400.00;3400.00;;;;;;;;6322008;22;8729;-81
2021/09/22 13:34:27;;;;;;;;;3353.40;3353.40;;;;;;;;6322141;22;11520;-81
2021/09/22 13:36:52;;;;;;;;;3357.00;3357.00;;;;;;;;6322147;22;8725;-81
2021/09/22 13:39:18;;;;;;;;;3338.25;3338.25;;;;;;;;6321716;22;8740;-82
2021/09/22 13:41:43;;;;;;;;;105.25;98.25;;;;;;;;6322185;22;8783;-81
2021/09/22 13:44:09;;;;;;;;;3393.00;3393.00;;;;;;;;6320856;22;9492;-82
2021/09/22 13:46:36;;;;;;;;;3389.40;3389.40;;;;;;;;6320117;22;8758;-81
2021/09/22 13:49:02;;;;;;;;;3364.00;3364.00;;;;;;;;6321794;22;8708;-81
2021/09/22 13:51:27;;;;;;;;;3357.00;3357.00;;;;;;;;6321738;22;8752;-80
2021/09/22 13:53:53;;;;;;;;;3342.75;3342.75;;;;;;;;6292355;22;8752;-81
2021/09/22 13:56:19;;;;;;;;;3355.00;3355.00;;;;;;;;6320768;22;8755;-82
2021/09/22 13:58:44;;;;;;;;;3393.00;3393.00;;;;;;;;6321873;22;8744;-83